Time;durP1;ratioP1;P1;durP2;ratioP2;P2;SDS_P1;SDS_P2;PMS_P1;PMS_P2;Temp;Humidity;BMP_temperature;BMP_pressure;BME280_temperature;BME280_humidity;BME280_pressure;Samples;Min_cycle;Max_cycle;Signal;HPM_P1;HPM_P2
2020/12/18 00:01:46;;;;;;;19.43;13.27;;;4.30;99.90;;;;;;6200864;28;20817;-63
2020/12/18 00:04:48;;;;;;;20.23;13.10;;;4.30;99.90;;;;;;6200804;28;20476;-61
2020/12/18 00:07:51;;;;;;;23.23;15.13;;;4.20;99.90;;;;;;6201465;28;20468;-61
2020/12/18 00:10:56;;;;;;;24.40;15.13;;;4.10;99.90;;;;;;6200930;28;21078;-62
2020/12/18 00:13:58;;;;;;;31.20;16.07;;;4.00;99.90;;;;;;6200935;28;20476;-61
2020/12/18 00:17:00;;;;;;;14.30;11.93;;;4.00;99.90;;;;;;6200724;28;20477;-62
2020/12/18 00:20:05;;;;;;;19.70;11.90;;;3.90;99.90;;;;;;6200463;28;20904;-62
2020/12/18 00:23:08;;;;;;;34.23;14.87;;;4.00;99.90;;;;;;6200991;28;20475;-60
2020/12/18 00:26:11;;;;;;;23.83;15.20;;;4.00;99.90;;;;;;6200777;28;20480;-62
2020/12/18 00:29:13;;;;;;;26.07;13.60;;;3.90;99.90;;;;;;6200814;28;20987;-61
2020/12/18 00:32:15;;;;;;;25.83;14.10;;;4.00;99.90;;;;;;6200952;28;20480;-62
2020/12/18 00:35:19;;;;;;;28.27;12.90;;;4.00;99.90;;;;;;6200840;28;20468;-63
2020/12/18 00:38:23;;;;;;;25.93;12.80;;;4.00;99.90;;;;;;6200849;28;20473;-61
2020/12/18 00:41:25;;;;;;;27.23;13.10;;;4.00;99.90;;;;;;6200904;28;20477;-62
2020/12/18 00:44:27;;;;;;;29.37;13.63;;;4.00;99.90;;;;;;6204671;28;20570;-64
2020/12/18 00:47:30;;;;;;;27.43;14.87;;;3.80;99.90;;;;;;6205741;28;20468;-64
2020/12/18 00:50:33;;;;;;;25.50;13.20;;;3.70;99.90;;;;;;6205198;28;20809;-60
2020/12/18 00:53:36;;;;;;;23.33;13.53;;;3.70;99.90;;;;;;6205877;28;20473;-62
2020/12/18 00:56:44;;;;;;;29.13;13.47;;;3.70;99.90;;;;;;6205133;28;20495;-61
2020/12/18 00:59:46;;;;;;;21.70;13.60;;;3.80;99.90;;;;;;6205403;28;20469;-63
2020/12/18 01:02:48;;;;;;;27.03;15.23;;;3.90;99.90;;;;;;6205155;28;20487;-65
2020/12/18 01:05:50;;;;;;;33.23;14.10;;;4.00;99.90;;;;;;6205118;28;20473;-63
2020/12/18 01:08:55;;;;;;;22.23;13.60;;;4.00;99.90;;;;;;6205044;28;20513;-64
2020/12/18 01:11:58;;;;;;;23.03;13.47;;;3.90;99.90;;;;;;6204808;28;20877;-62
2020/12/18 01:15:02;;;;;;;29.50;14.17;;;3.90;99.90;;;;;;6204966;28;20468;-60
2020/12/18 01:18:04;;;;;;;29.90;13.90;;;3.80;99.90;;;;;;6205047;28;20789;-60
2020/12/18 01:21:07;;;;;;;24.00;14.00;;;3.80;99.90;;;;;;6204660;28;20473;-58
2020/12/18 01:24:10;;;;;;;26.27;14.03;;;3.80;99.90;;;;;;6204615;28;20488;-56
2020/12/18 01:27:12;;;;;;;21.87;13.77;;;3.80;99.90;;;;;;6204487;28;20972;-58
2020/12/18 01:30:15;;;;;;;21.93;14.70;;;3.90;99.90;;;;;;6203723;28;20831;-57
2020/12/18 01:33:17;;;;;;;36.33;15.60;;;3.90;99.90;;;;;;6202606;28;20479;-57
2020/12/18 01:36:19;;;;;;;21.10;13.50;;;3.90;99.90;;;;;;6203316;28;20491;-56
2020/12/18 01:39:22;;;;;;;35.90;14.37;;;3.90;99.90;;;;;;6202684;28;21096;-57
2020/12/18 01:42:27;;;;;;;21.30;11.83;;;3.90;99.90;;;;;;6203079;28;20477;-58
2020/12/18 01:45:29;;;;;;;29.17;12.20;;;3.90;99.90;;;;;;6210982;28;20503;-57
2020/12/18 01:48:33;;;;;;;29.93;13.90;;;3.90;99.90;;;;;;6214320;28;20469;-57
2020/12/18 01:51:36;;;;;;;36.00;13.17;;;3.90;99.90;;;;;;6214691;28;20592;-57
2020/12/18 01:54:39;;;;;;;26.50;12.50;;;3.80;99.90;;;;;;6213878;28;20812;-58
2020/12/18 01:57:42;;;;;;;29.73;13.43;;;3.70;99.90;;;;;;6215619;28;20495;-58
2020/12/18 02:00:46;;;;;;;32.27;12.73;;;3.70;99.90;;;;;;6213390;28;20477;-58
2020/12/18 02:03:48;;;;;;;33.70;14.70;;;3.60;99.90;;;;;;6209758;28;20473;-57
2020/12/18 02:06:54;;;;;;;23.77;12.13;;;3.60;99.90;;;;;;6211831;28;20976;-60
2020/12/18 02:09:58;;;;;;;31.23;13.77;;;3.50;99.90;;;;;;6211826;28;20832;-61
2020/12/18 02:13:02;;;;;;;26.70;11.40;;;3.50;99.90;;;;;;6219479;28;20810;-61
2020/12/18 02:16:04;;;;;;;25.03;13.83;;;3.60;99.90;;;;;;6211378;28;20815;-60
2020/12/18 02:19:09;;;;;;;28.23;13.40;;;3.50;99.90;;;;;;6216523;28;20472;-60
2020/12/18 02:22:16;;;;;;;23.40;12.77;;;3.50;99.90;;;;;;6214787;28;20952;-60
2020/12/18 02:25:22;;;;;;;29.00;13.40;;;3.60;99.90;;;;;;6217658;28;20805;-64
2020/12/18 02:28:25;;;;;;;23.47;12.53;;;3.60;99.90;;;;;;6227845;28;20452;-61
2020/12/18 02:31:28;;;;;;;28.23;11.93;;;3.60;99.90;;;;;;6227289;28;20468;-60
2020/12/18 02:34:30;;;;;;;20.03;12.83;;;3.70;99.90;;;;;;6227583;28;20460;-64
2020/12/18 02:37:32;;;;;;;18.90;12.90;;;3.70;99.90;;;;;;6227712;28;20478;-63
2020/12/18 02:40:34;;;;;;;27.90;12.90;;;3.70;99.90;;;;;;6227383;28;20479;-56
2020/12/18 02:43:37;;;;;;;32.37;13.07;;;3.70;99.90;;;;;;6227125;28;20987;-58
2020/12/18 02:46:39;;;;;;;27.33;12.27;;;3.70;99.90;;;;;;6227447;28;20478;-58
2020/12/18 02:49:42;;;;;;;40.17;10.97;;;3.70;99.90;;;;;;6226836;28;20799;-58
2020/12/18 02:52:58;;;;;;;19.33;11.90;;;3.70;99.90;;;;;;6227172;28;20894;-63
2020/12/18 02:56:00;;;;;;;23.23;11.47;;;3.70;99.90;;;;;;6227383;28;20491;-62
2020/12/18 02:59:06;;;;;;;24.40;11.73;;;3.70;99.90;;;;;;6227352;28;20482;-63
2020/12/18 03:02:08;;;;;;;25.50;11.03;;;3.70;99.90;;;;;;6227068;28;20480;-60
2020/12/18 03:05:11;;;;;;;26.10;11.37;;;3.70;99.90;;;;;;6226696;28;20494;-64
2020/12/18 03:08:13;;;;;;;39.90;11.80;;;3.70;99.90;;;;;;6227329;28;20480;-60
2020/12/18 03:11:15;;;;;;;29.40;11.80;;;3.70;99.90;;;;;;6226655;28;20476;-60
2020/12/18 03:14:18;;;;;;;21.83;12.50;;;3.60;99.90;;;;;;6226855;28;20481;-63
2020/12/18 03:17:20;;;;;;;21.70;11.87;;;3.60;99.90;;;;;;6223240;28;21087;-57
2020/12/18 03:20:22;;;;;;;32.93;10.70;;;3.60;99.90;;;;;;6226198;28;20472;-64
2020/12/18 03:23:24;;;;;;;30.27;12.03;;;3.50;99.90;;;;;;6226288;28;20538;-63
2020/12/18 03:26:27;;;;;;;22.13;11.23;;;3.60;99.90;;;;;;6226121;28;20472;-61
2020/12/18 03:29:32;;;;;;;24.10;12.30;;;3.60;99.90;;;;;;6226344;28;20482;-64
2020/12/18 03:32:35;;;;;;;17.67;11.00;;;3.50;99.90;;;;;;6212712;28;20848;-64
2020/12/18 03:35:37;;;;;;;15.60;10.87;;;3.50;99.90;;;;;;6226151;28;20471;-63
2020/12/18 03:38:39;;;;;;;20.07;12.10;;;3.50;99.90;;;;;;6226241;28;20476;-58
2020/12/18 03:41:41;;;;;;;14.67;9.97;;;3.50;99.90;;;;;;6226075;28;20480;-58
2020/12/18 03:44:44;;;;;;;17.20;11.07;;;3.50;99.90;;;;;;6226406;28;20475;-58
2020/12/18 03:47:47;;;;;;;22.63;10.87;;;3.50;99.90;;;;;;6226290;28;20479;-64
2020/12/18 03:50:49;;;;;;;22.30;11.43;;;3.50;99.90;;;;;;6225834;28;20472;-62
2020/12/18 03:53:51;;;;;;;18.63;11.30;;;3.50;99.90;;;;;;6226283;28;20486;-61
2020/12/18 03:56:53;;;;;;;27.97;10.77;;;3.50;99.90;;;;;;6225911;28;20555;-63
2020/12/18 03:59:57;;;;;;;17.70;11.80;;;3.50;99.90;;;;;;6225601;28;20490;-64
2020/12/18 04:02:59;;;;;;;18.30;11.40;;;3.50;99.90;;;;;;6225906;28;20472;-62
2020/12/18 04:06:01;;;;;;;16.70;10.87;;;3.50;99.90;;;;;;6218963;28;20914;-63
2020/12/18 04:09:04;;;;;;;19.03;10.97;;;3.50;99.90;;;;;;6222504;28;20475;-60
2020/12/18 04:12:08;;;;;;;15.13;11.07;;;3.40;99.90;;;;;;6208808;28;20983;-59
2020/12/18 04:15:11;;;;;;;34.20;12.67;;;3.40;99.90;;;;;;6201545;28;20465;-60
2020/12/18 04:18:14;;;;;;;14.83;9.90;;;3.30;99.90;;;;;;6200366;28;20477;-60
2020/12/18 04:21:18;;;;;;;16.70;9.63;;;3.30;99.90;;;;;;6201102;28;20473;-57
2020/12/18 04:24:20;;;;;;;17.60;11.57;;;3.30;99.90;;;;;;6201022;28;20489;-59
2020/12/18 04:27:22;;;;;;;35.83;12.23;;;3.30;99.90;;;;;;6200884;28;20480;-63
2020/12/18 04:30:25;;;;;;;27.90;11.07;;;3.30;99.90;;;;;;6200706;28;20477;-60
2020/12/18 04:33:28;;;;;;;21.30;11.67;;;3.30;99.90;;;;;;6201026;28;20995;-57
2020/12/18 04:36:30;;;;;;;30.77;11.77;;;3.20;99.90;;;;;;6200721;28;20807;-57
2020/12/18 04:39:32;;;;;;;18.60;12.03;;;3.10;99.90;;;;;;6200838;28;20972;-64
2020/12/18 04:42:35;;;;;;;18.33;10.63;;;3.20;99.90;;;;;;6201472;28;20469;-57
2020/12/18 04:45:39;;;;;;;21.63;10.80;;;3.20;99.90;;;;;;6200422;28;20484;-57
2020/12/18 04:48:43;;;;;;;18.43;11.83;;;3.10;99.90;;;;;;6200739;28;20477;-57
2020/12/18 04:51:45;;;;;;;30.43;12.57;;;3.10;99.90;;;;;;6200433;28;20802;-57
2020/12/18 04:54:48;;;;;;;27.03;12.90;;;3.10;99.90;;;;;;6200680;28;20479;-59
2020/12/18 04:57:51;;;;;;;15.07;11.27;;;3.10;99.90;;;;;;6200953;28;20476;-64
2020/12/18 05:00:57;;;;;;;19.63;12.60;;;3.10;99.90;;;;;;6200384;28;20477;-57
2020/12/18 05:04:01;;;;;;;20.93;11.93;;;3.20;99.90;;;;;;6200588;28;20469;-60
2020/12/18 05:07:03;;;;;;;22.30;12.20;;;3.10;99.90;;;;;;6200685;28;20956;-63
2020/12/18 05:10:08;;;;;;;19.00;10.73;;;3.10;99.90;;;;;;6200583;28;20491;-56
2020/12/18 05:13:10;;;;;;;24.87;11.83;;;3.20;99.90;;;;;;6200610;28;20972;-60
2020/12/18 05:16:16;;;;;;;29.37;12.87;;;3.20;99.90;;;;;;6200420;28;20481;-60
2020/12/18 05:19:19;;;;;;;20.77;12.80;;;3.30;99.90;;;;;;6200968;28;20425;-60
2020/12/18 05:22:24;;;;;;;24.80;12.97;;;3.30;99.90;;;;;;6200308;28;20945;-60
2020/12/18 05:25:27;;;;;;;16.70;12.73;;;3.30;99.90;;;;;;6200094;28;20461;-60
2020/12/18 05:28:36;;;;;;;26.33;13.00;;;3.30;99.90;;;;;;6200502;28;20444;-60
2020/12/18 05:31:47;;;;;;;23.20;11.57;;;3.30;99.90;;;;;;6204214;28;20841;-57
2020/12/18 05:34:50;;;;;;;20.57;11.83;;;3.40;99.90;;;;;;6204768;28;20479;-57
2020/12/18 05:37:52;;;;;;;19.93;12.07;;;3.40;99.90;;;;;;6195646;28;20492;-57
2020/12/18 05:40:57;;;;;;;24.83;12.00;;;3.40;99.90;;;;;;6204724;28;20492;-57
2020/12/18 05:44:05;;;;;;;20.43;11.40;;;3.40;99.90;;;;;;6204791;28;20465;-60
2020/12/18 05:47:10;;;;;;;21.97;11.83;;;3.40;99.90;;;;;;6204521;28;20461;-60
2020/12/18 05:50:17;;;;;;;20.23;11.27;;;3.40;99.90;;;;;;6203933;28;20992;-60
2020/12/18 05:53:20;;;;;;;22.10;12.33;;;3.40;99.90;;;;;;6204364;28;20469;-60
2020/12/18 05:56:29;;;;;;;18.33;13.40;;;3.40;99.90;;;;;;6204627;28;20484;-60
2020/12/18 05:59:31;;;;;;;23.87;11.20;;;3.50;99.90;;;;;;6204306;28;20481;-63
2020/12/18 06:02:35;;;;;;;20.40;12.93;;;3.50;99.90;;;;;;6204235;28;20480;-60
2020/12/18 06:05:39;;;;;;;17.63;12.10;;;3.50;99.90;;;;;;6203855;28;20501;-60
2020/12/18 06:08:42;;;;;;;25.60;12.50;;;3.60;99.90;;;;;;6204394;28;20477;-60
2020/12/18 06:11:45;;;;;;;17.10;12.97;;;3.60;99.90;;;;;;6203935;28;20486;-60
2020/12/18 06:14:48;;;;;;;23.87;12.23;;;3.60;99.90;;;;;;6203532;28;20460;-60
2020/12/18 06:17:53;;;;;;;24.20;12.83;;;3.60;99.90;;;;;;6203278;28;20481;-59
2020/12/18 06:20:57;;;;;;;22.00;12.93;;;3.60;99.90;;;;;;6203669;28;20477;-60
2020/12/18 06:24:00;;;;;;;18.80;13.10;;;3.60;99.90;;;;;;6203530;28;20473;-59
2020/12/18 06:27:02;;;;;;;22.57;11.60;;;3.70;99.90;;;;;;6203316;28;20822;-60
2020/12/18 06:30:09;;;;;;;18.00;11.40;;;3.70;99.90;;;;;;6203148;28;20871;-59
2020/12/18 06:33:12;;;;;;;22.03;12.93;;;3.70;99.90;;;;;;6203760;28;20480;-62
2020/12/18 06:36:14;;;;;;;17.53;11.53;;;3.70;99.90;;;;;;6202977;28;20818;-60
2020/12/18 06:39:21;;;;;;;15.90;10.67;;;3.70;99.90;;;;;;6203051;28;20476;-61
2020/12/18 06:42:24;;;;;;;16.57;11.30;;;3.70;99.90;;;;;;6202437;28;20500;-60
2020/12/18 06:45:27;;;;;;;27.77;12.57;;;3.70;99.90;;;;;;6202998;28;20500;-61
2020/12/18 06:48:30;;;;;;;18.00;12.97;;;3.60;99.90;;;;;;6203404;28;20473;-59
2020/12/18 06:51:33;;;;;;;22.43;11.70;;;3.60;99.90;;;;;;6202923;28;20527;-59
2020/12/18 06:54:35;;;;;;;17.03;11.40;;;3.60;99.90;;;;;;6202555;28;20979;-60
2020/12/18 06:57:37;;;;;;;17.27;11.90;;;3.60;99.90;;;;;;6202929;28;20969;-60
2020/12/18 07:00:44;;;;;;;21.83;12.43;;;3.60;99.90;;;;;;6202515;28;20957;-65
2020/12/18 07:03:48;;;;;;;15.23;13.50;;;3.70;99.90;;;;;;6203067;28;20473;-65
2020/12/18 07:06:51;;;;;;;21.63;11.50;;;3.60;99.90;;;;;;6202858;28;20477;-65
2020/12/18 07:09:53;;;;;;;27.23;11.63;;;3.60;99.90;;;;;;6202494;28;20479;-65
2020/12/18 07:12:59;;;;;;;19.43;13.70;;;3.60;99.90;;;;;;6202620;28;20483;-64
2020/12/18 07:16:04;;;;;;;19.20;11.40;;;3.70;99.90;;;;;;6202624;28;20469;-64
2020/12/18 07:19:07;;;;;;;20.33;12.47;;;3.70;99.90;;;;;;6201852;28;20473;-64
2020/12/18 07:22:10;;;;;;;17.83;12.20;;;3.80;99.90;;;;;;6201912;28;20473;-64
2020/12/18 07:25:13;;;;;;;18.20;11.83;;;3.90;99.90;;;;;;6202517;28;20480;-63
2020/12/18 07:28:16;;;;;;;16.37;12.33;;;3.90;99.90;;;;;;6202400;28;20784;-64
2020/12/18 07:31:20;;;;;;;16.63;12.30;;;4.00;99.90;;;;;;6202093;28;20461;-64
2020/12/18 07:34:23;;;;;;;17.67;13.47;;;3.90;99.90;;;;;;6202034;28;20445;-64
2020/12/18 07:37:26;;;;;;;23.67;12.37;;;4.00;99.90;;;;;;6202505;28;20445;-64
2020/12/18 07:40:28;;;;;;;18.57;13.10;;;3.90;99.90;;;;;;6209265;28;20476;-66
2020/12/18 07:43:32;;;;;;;18.20;12.80;;;4.00;99.90;;;;;;6207817;28;20913;-64
2020/12/18 07:46:35;;;;;;;19.20;11.73;;;4.00;99.90;;;;;;6203086;28;20469;-63
2020/12/18 07:49:38;;;;;;;19.87;11.80;;;4.10;99.90;;;;;;6203650;28;20479;-64
2020/12/18 07:52:40;;;;;;;22.07;12.40;;;4.10;99.90;;;;;;6201692;28;20492;-63
2020/12/18 07:55:42;;;;;;;16.90;11.17;;;4.10;99.90;;;;;;6203339;28;20472;-64
2020/12/18 07:58:49;;;;;;;20.77;13.10;;;4.20;99.90;;;;;;6202635;28;20792;-64
2020/12/18 08:01:52;;;;;;;18.00;12.10;;;4.20;99.90;;;;;;6202289;28;20480;-64
2020/12/18 08:04:59;;;;;;;20.57;12.97;;;4.30;99.90;;;;;;6201642;28;20477;-63
2020/12/18 08:08:02;;;;;;;19.97;12.30;;;4.30;99.90;;;;;;6202286;28;20465;-64
2020/12/18 08:11:04;;;;;;;21.03;12.60;;;4.30;99.90;;;;;;6202776;28;20472;-64
2020/12/18 08:14:06;;;;;;;23.27;12.97;;;4.30;99.90;;;;;;6203737;28;20472;-64
2020/12/18 08:17:21;;;;;;;23.03;12.80;;;4.30;99.90;;;;;;6202624;28;20481;-64
2020/12/18 08:20:25;;;;;;;17.47;12.50;;;4.30;99.90;;;;;;6204896;28;20477;-64
2020/12/18 08:23:29;;;;;;;22.13;12.40;;;4.30;99.90;;;;;;6203313;28;20472;-64
2020/12/18 08:26:36;;;;;;;18.07;12.83;;;4.30;99.90;;;;;;6202040;28;20980;-63
2020/12/18 08:29:38;;;;;;;21.83;13.30;;;4.30;99.90;;;;;;6201797;28;20818;-63
2020/12/18 08:32:45;;;;;;;26.93;12.90;;;4.40;99.90;;;;;;6201761;28;20465;-63
2020/12/18 08:35:52;;;;;;;15.23;11.80;;;4.40;99.90;;;;;;6201479;28;20461;-65
2020/12/18 08:39:06;;;;;;;23.73;14.50;;;4.50;99.90;;;;;;6201554;28;20473;-64
2020/12/18 08:42:08;;;;;;;16.80;12.17;;;4.60;99.90;;;;;;6207823;28;20473;-64
2020/12/18 08:45:10;;;;;;;20.07;13.40;;;4.60;99.90;;;;;;6213701;28;20472;-58
2020/12/18 08:48:19;;;;;;;14.60;11.80;;;4.60;99.90;;;;;;6217319;28;20555;-57
2020/12/18 08:51:22;;;;;;;18.47;13.23;;;4.60;99.90;;;;;;6191764;28;20481;-59
2020/12/18 08:54:27;;;;;;;20.03;14.80;;;4.60;99.90;;;;;;6183347;28;20480;-59
2020/12/18 08:57:30;;;;;;;21.53;14.20;;;4.70;99.90;;;;;;6176679;28;20481;-58
2020/12/18 09:00:35;;;;;;;21.30;13.80;;;4.70;99.90;;;;;;6191527;28;20520;-59
2020/12/18 09:03:39;;;;;;;18.53;14.57;;;4.80;99.90;;;;;;6201102;28;20472;-59
2020/12/18 09:06:50;;;;;;;22.63;14.33;;;4.70;99.90;;;;;;6205157;28;20481;-57
2020/12/18 09:09:53;;;;;;;18.53;13.10;;;4.80;99.90;;;;;;6183611;28;20485;-58
2020/12/18 09:12:56;;;;;;;21.83;14.40;;;4.90;99.90;;;;;;6180917;28;20486;-58
2020/12/18 09:16:06;;;;;;;18.63;12.40;;;5.00;99.90;;;;;;6180746;28;20863;-60
2020/12/18 09:19:13;;;;;;;18.87;12.53;;;5.10;99.90;;;;;;6180270;28;20477;-59
2020/12/18 09:22:16;;;;;;;20.10;12.93;;;5.10;99.90;;;;;;6208099;28;20464;-58
2020/12/18 09:25:20;;;;;;;20.20;14.90;;;5.00;99.90;;;;;;6220212;28;20507;-58
2020/12/18 09:28:24;;;;;;;18.07;13.17;;;5.00;99.90;;;;;;6204605;28;20445;-56
2020/12/18 09:31:26;;;;;;;21.10;13.53;;;5.10;99.90;;;;;;6204376;28;20795;-57
2020/12/18 09:34:30;;;;;;;20.70;14.17;;;5.20;99.90;;;;;;6204273;28;20449;-59
2020/12/18 09:37:33;;;;;;;22.30;14.63;;;5.20;99.90;;;;;;6204289;28;20480;-59
2020/12/18 09:40:36;;;;;;;19.43;14.27;;;5.20;99.90;;;;;;6204106;28;20475;-57
2020/12/18 09:43:38;;;;;;;22.10;14.70;;;5.20;99.90;;;;;;6204291;28;20482;-59
2020/12/18 09:46:40;;;;;;;19.73;13.90;;;5.20;99.90;;;;;;6204068;28;20545;-58
2020/12/18 09:49:45;;;;;;;20.50;15.00;;;5.10;99.90;;;;;;6204193;28;20558;-58
2020/12/18 09:52:49;;;;;;;23.90;16.37;;;5.20;99.90;;;;;;6200827;28;20527;-60
2020/12/18 09:55:51;;;;;;;20.70;15.47;;;5.20;99.90;;;;;;6203969;28;20461;-57
2020/12/18 09:58:53;;;;;;;17.53;13.70;;;5.20;99.90;;;;;;6204187;28;20563;-57
2020/12/18 10:01:55;;;;;;;22.60;14.67;;;5.20;99.90;;;;;;6204109;28;20484;-58
2020/12/18 10:04:57;;;;;;;17.60;13.37;;;5.20;99.90;;;;;;6203352;28;20973;-59
2020/12/18 10:08:00;;;;;;;25.80;16.10;;;5.30;99.90;;;;;;6204089;28;20479;-57
2020/12/18 10:11:03;;;;;;;17.87;13.93;;;5.30;99.90;;;;;;6203223;28;20481;-58
2020/12/18 10:14:05;;;;;;;18.17;14.00;;;5.30;99.90;;;;;;6203938;28;20465;-57
2020/12/18 10:17:07;;;;;;;18.23;13.17;;;5.40;99.90;;;;;;6202398;28;20488;-56
2020/12/18 10:20:09;;;;;;;20.40;14.80;;;5.50;99.90;;;;;;6203304;28;20969;-58
2020/12/18 10:23:12;;;;;;;23.87;15.50;;;5.60;99.90;;;;;;6203614;28;20508;-58
2020/12/18 10:26:30;;;;;;;21.17;15.50;;;5.70;99.90;;;;;;6203267;28;20478;-56
2020/12/18 10:29:32;;;;;;;18.33;14.10;;;5.70;99.90;;;;;;6203150;28;20554;-59
2020/12/18 10:32:36;;;;;;;18.53;14.77;;;5.80;99.90;;;;;;6203701;28;20465;-60
2020/12/18 10:35:38;;;;;;;18.43;13.80;;;6.00;99.90;;;;;;6203102;28;20511;-62
2020/12/18 10:38:41;;;;;;;21.27;15.67;;;6.00;99.90;;;;;;6203167;28;20540;-60
2020/12/18 10:41:44;;;;;;;18.27;13.43;;;6.00;99.90;;;;;;6203021;28;20473;-62
2020/12/18 10:44:47;;;;;;;21.27;15.77;;;6.00;99.90;;;;;;6203156;28;20483;-65
2020/12/18 10:47:50;;;;;;;21.87;15.50;;;6.00;99.90;;;;;;6202887;28;20806;-64
2020/12/18 10:50:52;;;;;;;21.37;14.97;;;5.70;99.90;;;;;;6202833;28;20472;-64
2020/12/18 10:53:55;;;;;;;21.37;15.20;;;5.60;99.90;;;;;;6189128;28;20479;-66
2020/12/18 10:56:58;;;;;;;22.60;14.97;;;5.80;99.90;;;;;;6193706;28;20886;-64
2020/12/18 11:00:00;;;;;;;23.13;15.83;;;5.90;99.90;;;;;;6202348;28;20485;-63
2020/12/18 11:03:02;;;;;;;22.07;16.33;;;6.00;99.90;;;;;;6226403;28;20660;-62
2020/12/18 11:06:04;;;;;;;20.20;14.30;;;6.10;99.90;;;;;;6226266;28;20476;-61
2020/12/18 11:09:08;;;;;;;22.40;16.27;;;6.20;99.90;;;;;;6226077;28;20468;-62
2020/12/18 11:12:10;;;;;;;24.20;15.63;;;6.30;99.90;;;;;;6226353;28;20537;-62
2020/12/18 11:15:13;;;;;;;19.53;15.50;;;6.50;99.90;;;;;;6226093;28;20488;-61
2020/12/18 11:18:15;;;;;;;22.60;15.10;;;6.50;99.90;;;;;;6226246;28;20626;-60
2020/12/18 11:21:18;;;;;;;17.73;14.17;;;6.60;99.90;;;;;;6225866;28;20476;-59
2020/12/18 11:24:20;;;;;;;19.77;16.03;;;6.70;99.90;;;;;;6204309;28;20813;-58
2020/12/18 11:27:23;;;;;;;19.03;15.00;;;6.80;99.90;;;;;;6223643;28;20480;-57
2020/12/18 11:30:26;;;;;;;25.50;14.80;;;6.80;99.90;;;;;;6207540;28;20492;-57
2020/12/18 11:33:28;;;;;;;19.37;16.00;;;6.90;99.90;;;;;;6209843;28;20482;-61
2020/12/18 11:36:32;;;;;;;19.73;15.30;;;6.80;99.90;;;;;;6210145;28;20957;-62
2020/12/18 11:39:35;;;;;;;20.80;16.07;;;6.70;99.90;;;;;;6201657;28;20796;-62
2020/12/18 11:42:37;;;;;;;23.57;16.60;;;6.60;99.90;;;;;;6201348;28;20473;-62
2020/12/18 11:45:39;;;;;;;20.53;15.40;;;6.50;99.90;;;;;;6201191;28;20915;-62
2020/12/18 11:48:42;;;;;;;20.37;15.07;;;6.50;99.90;;;;;;6201222;28;20976;-62
2020/12/18 11:51:44;;;;;;;23.17;16.30;;;6.60;99.90;;;;;;6201340;28;20822;-62
2020/12/18 11:54:47;;;;;;;17.50;15.20;;;6.50;99.90;;;;;;6200940;28;20504;-62
2020/12/18 11:57:49;;;;;;;22.97;16.70;;;6.50;99.90;;;;;;6201388;28;21000;-62
2020/12/18 12:00:53;;;;;;;20.90;18.30;;;6.50;99.90;;;;;;6191744;28;20481;-62
2020/12/18 12:03:56;;;;;;;19.57;16.13;;;6.50;99.90;;;;;;6201379;28;20469;-58
2020/12/18 12:06:58;;;;;;;19.93;15.40;;;6.60;99.90;;;;;;6200728;28;20480;-61
2020/12/18 12:10:01;;;;;;;25.03;14.57;;;6.70;99.90;;;;;;6200990;28;20560;-62
2020/12/18 12:13:03;;;;;;;20.37;15.70;;;6.70;99.90;;;;;;6200981;28;20469;-62
2020/12/18 12:16:06;;;;;;;18.70;14.50;;;6.80;99.90;;;;;;6200772;28;21007;-59
2020/12/18 12:19:09;;;;;;;20.50;15.90;;;6.80;99.90;;;;;;6211509;28;20948;-61
2020/12/18 12:22:13;;;;;;;20.67;16.00;;;6.70;99.90;;;;;;6225142;28;20487;-59
2020/12/18 12:25:16;;;;;;;20.20;17.43;;;6.50;99.90;;;;;;6224820;28;20471;-61
2020/12/18 12:28:31;;;;;;;19.90;16.90;;;6.50;99.90;;;;;;6224760;28;20425;-62
2020/12/18 12:31:33;;;;;;;24.70;17.47;;;6.50;99.90;;;;;;6206113;28;20952;-62
2020/12/18 12:34:36;;;;;;;23.63;16.90;;;6.40;99.90;;;;;;6210995;28;20479;-63
2020/12/18 12:37:38;;;;;;;21.77;16.97;;;6.40;99.90;;;;;;6212125;28;20456;-62
2020/12/18 12:40:42;;;;;;;24.57;16.53;;;6.40;99.90;;;;;;6214772;28;20468;-62
2020/12/18 12:43:44;;;;;;;20.90;16.77;;;6.40;99.90;;;;;;6209462;28;20533;-62
2020/12/18 12:46:47;;;;;;;24.57;16.93;;;6.40;99.90;;;;;;6215273;28;20457;-61
2020/12/18 12:49:49;;;;;;;25.37;18.27;;;6.50;99.90;;;;;;6216594;28;20471;-57
2020/12/18 12:52:51;;;;;;;28.53;17.00;;;6.30;99.90;;;;;;6217249;28;20465;-61
2020/12/18 12:55:54;;;;;;;25.47;18.10;;;6.00;99.90;;;;;;6215803;28;20468;-61
2020/12/18 12:58:57;;;;;;;25.63;17.50;;;6.10;99.90;;;;;;6224408;28;20457;-59
2020/12/18 13:01:59;;;;;;;25.53;17.60;;;6.10;99.90;;;;;;6200578;28;20496;-62
2020/12/18 13:05:02;;;;;;;23.43;17.30;;;6.20;99.90;;;;;;6205126;28;20480;-59
2020/12/18 13:08:04;;;;;;;21.97;17.03;;;6.30;99.90;;;;;;6216162;28;20473;-59
2020/12/18 13:11:07;;;;;;;22.67;16.40;;;6.30;99.90;;;;;;6214566;28;20487;-60
2020/12/18 13:14:09;;;;;;;24.47;17.67;;;6.40;99.90;;;;;;6217215;28;20670;-61
2020/12/18 13:17:12;;;;;;;19.73;14.80;;;6.30;99.90;;;;;;6211618;28;20484;-57
2020/12/18 13:20:14;;;;;;;25.07;16.60;;;6.30;99.90;;;;;;6215850;28;20967;-59
2020/12/18 13:23:16;;;;;;;23.00;16.60;;;6.30;99.90;;;;;;6204627;28;20469;-57
2020/12/18 13:26:19;;;;;;;26.23;17.50;;;6.30;99.90;;;;;;6204454;28;20499;-58
2020/12/18 13:29:21;;;;;;;22.43;18.00;;;6.30;99.90;;;;;;6204246;28;20472;-58
2020/12/18 13:32:26;;;;;;;25.43;19.53;;;6.30;99.90;;;;;;6204008;28;20484;-57
2020/12/18 13:35:28;;;;;;;26.90;18.50;;;6.30;99.90;;;;;;6204086;28;20469;-57
2020/12/18 13:38:30;;;;;;;22.90;18.03;;;6.30;99.90;;;;;;6204150;28;20991;-59
2020/12/18 13:41:33;;;;;;;23.60;17.37;;;6.30;99.90;;;;;;6206185;28;20960;-58
2020/12/18 13:44:35;;;;;;;25.97;18.30;;;6.30;99.90;;;;;;6215355;28;20961;-58
2020/12/18 13:47:39;;;;;;;32.10;19.90;;;6.10;99.90;;;;;;6213672;28;20812;-58
2020/12/18 13:50:41;;;;;;;24.60;17.63;;;6.10;99.90;;;;;;6214836;28;20488;-58
2020/12/18 13:53:43;;;;;;;23.40;17.90;;;6.10;99.90;;;;;;6212717;28;20955;-58
2020/12/18 13:56:47;;;;;;;22.73;17.13;;;6.00;99.90;;;;;;6216071;28;20799;-58
2020/12/18 13:59:49;;;;;;;21.73;17.10;;;6.00;99.90;;;;;;6213470;28;20468;-58
2020/12/18 14:02:51;;;;;;;26.40;17.87;;;6.20;99.90;;;;;;6214332;28;20468;-57
2020/12/18 14:05:56;;;;;;;29.00;20.63;;;6.20;99.90;;;;;;6213509;28;20562;-58
2020/12/18 14:08:58;;;;;;;25.27;17.17;;;6.20;99.90;;;;;;6210572;28;20473;-57
2020/12/18 14:12:02;;;;;;;28.60;18.73;;;6.20;99.90;;;;;;6212739;28;20999;-58
2020/12/18 14:15:05;;;;;;;28.77;19.13;;;6.20;99.90;;;;;;6210806;28;20465;-61
2020/12/18 14:18:07;;;;;;;26.03;18.03;;;6.10;99.90;;;;;;6212550;28;20481;-58
2020/12/18 14:21:12;;;;;;;26.47;17.30;;;6.10;99.90;;;;;;6213585;28;20563;-58
2020/12/18 14:24:15;;;;;;;21.00;15.30;;;6.10;99.90;;;;;;6217397;28;20468;-56
2020/12/18 14:27:18;;;;;;;27.60;16.10;;;6.10;99.90;;;;;;6227488;28;20492;-61
2020/12/18 14:30:20;;;;;;;22.97;16.87;;;6.10;99.90;;;;;;6227291;28;20472;-57
2020/12/18 14:33:22;;;;;;;23.47;16.97;;;6.10;99.90;;;;;;6227172;28;20475;-59
2020/12/18 14:36:25;;;;;;;21.60;16.87;;;6.10;99.90;;;;;;6227347;28;20757;-57
2020/12/18 14:39:27;;;;;;;28.30;17.57;;;6.00;99.90;;;;;;6227178;28;20490;-60
2020/12/18 14:42:31;;;;;;;25.93;17.50;;;6.00;99.90;;;;;;6227240;28;20472;-56
2020/12/18 14:45:33;;;;;;;26.27;18.37;;;6.10;99.90;;;;;;6227032;28;20534;-58
2020/12/18 14:48:35;;;;;;;27.57;18.77;;;6.10;99.90;;;;;;6226721;28;20491;-56
2020/12/18 14:51:38;;;;;;;25.50;17.80;;;5.90;99.90;;;;;;6213656;28;20489;-56
2020/12/18 14:54:42;;;;;;;22.67;16.33;;;5.90;99.90;;;;;;6189777;28;20473;-58
2020/12/18 14:57:47;;;;;;;20.80;16.47;;;5.90;99.90;;;;;;6202444;28;20808;-59
2020/12/18 15:00:49;;;;;;;23.13;16.83;;;5.90;99.90;;;;;;6202461;28;20473;-59
2020/12/18 15:03:52;;;;;;;25.13;17.93;;;5.90;99.90;;;;;;6202203;28;20480;-59
2020/12/18 15:06:54;;;;;;;29.90;19.83;;;5.90;99.90;;;;;;6202160;28;20485;-57
2020/12/18 15:09:58;;;;;;;25.07;17.93;;;5.80;99.90;;;;;;6202034;28;20827;-58
2020/12/18 15:13:01;;;;;;;27.07;18.20;;;5.90;99.90;;;;;;6192626;28;20492;-56
2020/12/18 15:16:04;;;;;;;28.80;18.73;;;5.80;99.90;;;;;;6201779;28;20539;-57
2020/12/18 15:19:06;;;;;;;24.77;17.90;;;5.70;99.90;;;;;;6201600;28;20491;-59
2020/12/18 15:22:09;;;;;;;27.37;18.50;;;5.60;99.90;;;;;;6201867;28;20496;-58
2020/12/18 15:25:11;;;;;;;25.80;18.90;;;5.40;99.90;;;;;;6201574;28;20473;-60
2020/12/18 15:28:17;;;;;;;24.80;17.17;;;5.40;99.90;;;;;;6201437;28;20654;-57
2020/12/18 15:31:19;;;;;;;22.00;17.90;;;5.50;99.90;;;;;;6201204;28;20558;-57
2020/12/18 15:34:21;;;;;;;23.27;17.97;;;5.50;99.90;;;;;;6201619;28;20456;-59
2020/12/18 15:37:24;;;;;;;23.93;16.93;;;5.50;99.90;;;;;;6201562;28;20525;-58
2020/12/18 15:40:28;;;;;;;22.70;16.77;;;5.40;99.90;;;;;;6201641;28;20469;-60
2020/12/18 15:43:31;;;;;;;25.77;19.00;;;5.40;99.90;;;;;;6201542;28;20460;-58